sensor_id;sensor_type;location;lat;lon;timestamp;P1;durP1;ratioP1;P2;durP2;ratioP2
34832;SDS011;55941;50.800;4.342;2023-07-20T00:00:51;10.23;;;3.03;;
34832;SDS011;55941;50.800;4.342;2023-07-20T00:03:18;9.82;;;2.40;;
34832;SDS011;55941;50.800;4.342;2023-07-20T00:05:48;8.77;;;2.53;;
34832;SDS011;55941;50.800;4.342;2023-07-20T00:08:14;12.20;;;2.72;;
34832;SDS011;55941;50.800;4.342;2023-07-20T00:10:41;9.48;;;2.75;;
34832;SDS011;55941;50.800;4.342;2023-07-20T00:13:08;12.85;;;3.00;;
34832;SDS011;55941;50.800;4.342;2023-07-20T00:15:34;10.27;;;3.28;;
34832;SDS011;55941;50.800;4.342;2023-07-20T00:17:59;7.78;;;2.33;;
34832;SDS011;55941;50.800;4.342;2023-07-20T00:20:25;11.93;;;3.20;;
34832;SDS011;55941;50.800;4.342;2023-07-20T00:22:51;12.00;;;3.42;;
34832;SDS011;55941;50.800;4.342;2023-07-20T00:25:17;11.95;;;2.80;;
34832;SDS011;55941;50.800;4.342;2023-07-20T00:27:43;10.25;;;2.50;;
34832;SDS011;55941;50.800;4.342;2023-07-20T00:30:09;10.60;;;2.72;;
34832;SDS011;55941;50.800;4.342;2023-07-20T00:32:35;11.07;;;3.05;;
34832;SDS011;55941;50.800;4.342;2023-07-20T00:35:01;12.98;;;3.22;;
34832;SDS011;55941;50.800;4.342;2023-07-20T00:37:26;14.40;;;2.97;;
34832;SDS011;55941;50.800;4.342;2023-07-20T00:39:52;14.23;;;3.03;;
34832;SDS011;55941;50.800;4.342;2023-07-20T00:42:18;9.50;;;2.60;;
34832;SDS011;55941;50.800;4.342;2023-07-20T00:44:44;17.05;;;3.00;;
34832;SDS011;55941;50.800;4.342;2023-07-20T00:47:10;5.57;;;2.53;;
34832;SDS011;55941;50.800;4.342;2023-07-20T00:49:35;12.02;;;2.85;;
34832;SDS011;55941;50.800;4.342;2023-07-20T00:52:02;12.88;;;2.47;;
34832;SDS011;55941;50.800;4.342;2023-07-20T00:54:31;12.00;;;3.15;;
34832;SDS011;55941;50.800;4.342;2023-07-20T00:56:57;8.35;;;2.50;;
34832;SDS011;55941;50.800;4.342;2023-07-20T00:59:25;14.50;;;2.80;;
34832;SDS011;55941;50.800;4.342;2023-07-20T01:01:51;19.10;;;3.50;;
34832;SDS011;55941;50.800;4.342;2023-07-20T01:04:18;10.20;;;2.88;;
34832;SDS011;55941;50.800;4.342;2023-07-20T01:06:46;7.10;;;2.72;;
34832;SDS011;55941;50.800;4.342;2023-07-20T01:09:26;6.25;;;2.88;;
34832;SDS011;55941;50.800;4.342;2023-07-20T01:12:07;8.68;;;3.28;;
34832;SDS011;55941;50.800;4.342;2023-07-20T01:14:38;13.15;;;3.17;;
34832;SDS011;55941;50.800;4.342;2023-07-20T01:17:04;15.45;;;2.67;;
34832;SDS011;55941;50.800;4.342;2023-07-20T01:19:30;10.70;;;3.08;;
34832;SDS011;55941;50.800;4.342;2023-07-20T01:22:01;15.60;;;4.05;;
34832;SDS011;55941;50.800;4.342;2023-07-20T01:32:59;11.40;;;2.92;;
34832;SDS011;55941;50.800;4.342;2023-07-20T01:35:29;11.23;;;3.08;;
34832;SDS011;55941;50.800;4.342;2023-07-20T01:37:57;13.55;;;3.70;;
34832;SDS011;55941;50.800;4.342;2023-07-20T01:40:24;16.55;;;3.50;;
34832;SDS011;55941;50.800;4.342;2023-07-20T01:42:50;16.88;;;4.03;;
34832;SDS011;55941;50.800;4.342;2023-07-20T01:45:17;13.18;;;3.72;;
34832;SDS011;55941;50.800;4.342;2023-07-20T01:47:42;11.88;;;3.60;;
34832;SDS011;55941;50.800;4.342;2023-07-20T01:50:09;15.48;;;3.15;;
34832;SDS011;55941;50.800;4.342;2023-07-20T01:52:35;11.38;;;3.05;;
34832;SDS011;55941;50.800;4.342;2023-07-20T01:55:01;18.45;;;3.92;;
34832;SDS011;55941;50.800;4.342;2023-07-20T01:57:26;17.55;;;3.97;;
34832;SDS011;55941;50.800;4.342;2023-07-20T01:59:52;15.70;;;4.25;;
34832;SDS011;55941;50.800;4.342;2023-07-20T02:02:18;14.70;;;3.90;;
34832;SDS011;55941;50.800;4.342;2023-07-20T02:04:45;13.20;;;3.70;;
34832;SDS011;55941;50.800;4.342;2023-07-20T02:07:11;17.45;;;4.25;;
34832;SDS011;55941;50.800;4.342;2023-07-20T02:09:36;11.90;;;3.80;;
34832;SDS011;55941;50.800;4.342;2023-07-20T02:12:02;16.35;;;4.10;;
34832;SDS011;55941;50.800;4.342;2023-07-20T02:14:28;21.30;;;4.15;;
34832;SDS011;55941;50.800;4.342;2023-07-20T02:16:54;20.02;;;4.57;;
34832;SDS011;55941;50.800;4.342;2023-07-20T02:19:24;12.70;;;4.18;;
34832;SDS011;55941;50.800;4.342;2023-07-20T02:21:51;15.48;;;3.97;;
34832;SDS011;55941;50.800;4.342;2023-07-20T02:24:17;13.52;;;4.38;;
34832;SDS011;55941;50.800;4.342;2023-07-20T02:26:45;13.32;;;4.43;;
34832;SDS011;55941;50.800;4.342;2023-07-20T02:29:10;16.95;;;5.35;;
34832;SDS011;55941;50.800;4.342;2023-07-20T02:31:39;21.25;;;5.43;;
34832;SDS011;55941;50.800;4.342;2023-07-20T02:34:07;15.85;;;4.97;;
34832;SDS011;55941;50.800;4.342;2023-07-20T02:36:34;20.95;;;5.53;;
34832;SDS011;55941;50.800;4.342;2023-07-20T02:39:00;19.83;;;6.25;;
34832;SDS011;55941;50.800;4.342;2023-07-20T02:41:29;15.20;;;4.78;;
34832;SDS011;55941;50.800;4.342;2023-07-20T02:43:56;25.00;;;6.13;;
34832;SDS011;55941;50.800;4.342;2023-07-20T02:46:21;26.65;;;5.68;;
34832;SDS011;55941;50.800;4.342;2023-07-20T02:48:47;25.08;;;6.45;;
34832;SDS011;55941;50.800;4.342;2023-07-20T02:51:13;18.95;;;5.57;;
34832;SDS011;55941;50.800;4.342;2023-07-20T02:53:39;22.42;;;5.53;;
34832;SDS011;55941;50.800;4.342;2023-07-20T02:56:06;24.10;;;6.30;;
34832;SDS011;55941;50.800;4.342;2023-07-20T02:58:33;20.75;;;5.55;;
34832;SDS011;55941;50.800;4.342;2023-07-20T03:01:02;19.92;;;5.28;;
34832;SDS011;55941;50.800;4.342;2023-07-20T03:03:27;25.75;;;5.63;;
34832;SDS011;55941;50.800;4.342;2023-07-20T03:05:53;19.33;;;5.68;;
34832;SDS011;55941;50.800;4.342;2023-07-20T03:08:20;20.67;;;6.00;;
34832;SDS011;55941;50.800;4.342;2023-07-20T03:10:46;17.92;;;6.10;;
34832;SDS011;55941;50.800;4.342;2023-07-20T03:13:12;16.35;;;5.68;;
34832;SDS011;55941;50.800;4.342;2023-07-20T03:15:39;30.35;;;5.85;;
34832;SDS011;55941;50.800;4.342;2023-07-20T03:18:05;23.50;;;5.95;;
34832;SDS011;55941;50.800;4.342;2023-07-20T03:20:31;15.15;;;5.60;;
34832;SDS011;55941;50.800;4.342;2023-07-20T03:22:56;18.80;;;6.32;;
34832;SDS011;55941;50.800;4.342;2023-07-20T03:25:22;22.50;;;7.32;;
34832;SDS011;55941;50.800;4.342;2023-07-20T03:27:48;19.58;;;7.20;;
34832;SDS011;55941;50.800;4.342;2023-07-20T03:30:13;22.52;;;6.90;;
34832;SDS011;55941;50.800;4.342;2023-07-20T03:32:39;20.08;;;6.45;;
34832;SDS011;55941;50.800;4.342;2023-07-20T03:35:05;22.48;;;7.63;;
34832;SDS011;55941;50.800;4.342;2023-07-20T03:37:31;22.67;;;7.15;;
34832;SDS011;55941;50.800;4.342;2023-07-20T03:39:59;24.85;;;8.60;;
34832;SDS011;55941;50.800;4.342;2023-07-20T03:42:25;30.70;;;8.75;;
34832;SDS011;55941;50.800;4.342;2023-07-20T03:44:51;37.45;;;9.23;;
34832;SDS011;55941;50.800;4.342;2023-07-20T03:47:16;18.60;;;8.55;;
34832;SDS011;55941;50.800;4.342;2023-07-20T03:49:42;35.30;;;9.63;;
34832;SDS011;55941;50.800;4.342;2023-07-20T03:52:08;30.08;;;8.82;;
34832;SDS011;55941;50.800;4.342;2023-07-20T03:54:33;32.53;;;9.18;;
34832;SDS011;55941;50.800;4.342;2023-07-20T03:56:59;29.88;;;9.10;;
34832;SDS011;55941;50.800;4.342;2023-07-20T03:59:25;24.52;;;8.85;;
34832;SDS011;55941;50.800;4.342;2023-07-20T04:01:51;26.17;;;9.48;;
34832;SDS011;55941;50.800;4.342;2023-07-20T04:04:17;29.15;;;8.68;;
34832;SDS011;55941;50.800;4.342;2023-07-20T04:06:43;28.67;;;9.73;;
34832;SDS011;55941;50.800;4.342;2023-07-20T04:09:09;23.08;;;8.90;;
34832;SDS011;55941;50.800;4.342;2023-07-20T04:11:36;31.25;;;10.07;;
34832;SDS011;55941;50.800;4.342;2023-07-20T04:14:02;36.08;;;10.07;;
34832;SDS011;55941;50.800;4.342;2023-07-20T04:16:27;31.92;;;9.88;;
34832;SDS011;55941;50.800;4.342;2023-07-20T04:18:56;21.40;;;9.90;;
34832;SDS011;55941;50.800;4.342;2023-07-20T04:21:23;28.60;;;10.15;;
34832;SDS011;55941;50.800;4.342;2023-07-20T04:23:50;26.40;;;9.82;;
34832;SDS011;55941;50.800;4.342;2023-07-20T04:26:16;21.95;;;10.63;;
34832;SDS011;55941;50.800;4.342;2023-07-20T04:28:42;25.85;;;9.93;;
34832;SDS011;55941;50.800;4.342;2023-07-20T04:31:11;33.20;;;11.65;;
34832;SDS011;55941;50.800;4.342;2023-07-20T04:33:37;30.42;;;11.70;;
34832;SDS011;55941;50.800;4.342;2023-07-20T04:36:04;29.02;;;10.70;;
34832;SDS011;55941;50.800;4.342;2023-07-20T04:38:29;27.20;;;10.05;;
34832;SDS011;55941;50.800;4.342;2023-07-20T04:40:55;26.15;;;9.65;;
34832;SDS011;55941;50.800;4.342;2023-07-20T04:43:21;24.27;;;10.38;;
34832;SDS011;55941;50.800;4.342;2023-07-20T04:45:46;27.45;;;11.13;;
34832;SDS011;55941;50.800;4.342;2023-07-20T04:48:13;30.98;;;11.20;;
34832;SDS011;55941;50.800;4.342;2023-07-20T04:50:40;33.53;;;11.20;;
34832;SDS011;55941;50.800;4.342;2023-07-20T04:53:08;26.73;;;11.75;;
34832;SDS011;55941;50.800;4.342;2023-07-20T04:55:35;32.60;;;12.77;;
34832;SDS011;55941;50.800;4.342;2023-07-20T04:58:02;35.08;;;12.27;;
34832;SDS011;55941;50.800;4.342;2023-07-20T05:00:35;26.55;;;11.20;;
34832;SDS011;55941;50.800;4.342;2023-07-20T05:03:03;36.08;;;10.43;;
34832;SDS011;55941;50.800;4.342;2023-07-20T05:05:30;26.30;;;12.15;;
34832;SDS011;55941;50.800;4.342;2023-07-20T05:07:56;21.75;;;11.45;;
34832;SDS011;55941;50.800;4.342;2023-07-20T05:10:22;24.05;;;11.60;;
34832;SDS011;55941;50.800;4.342;2023-07-20T05:12:48;34.53;;;13.63;;
34832;SDS011;55941;50.800;4.342;2023-07-20T05:15:15;26.60;;;12.10;;
34832;SDS011;55941;50.800;4.342;2023-07-20T05:17:41;38.47;;;13.27;;
34832;SDS011;55941;50.800;4.342;2023-07-20T05:20:06;35.35;;;11.98;;
34832;SDS011;55941;50.800;4.342;2023-07-20T05:22:35;28.38;;;12.45;;
34832;SDS011;55941;50.800;4.342;2023-07-20T05:25:04;24.13;;;12.57;;
34832;SDS011;55941;50.800;4.342;2023-07-20T05:27:38;26.02;;;12.82;;
34832;SDS011;55941;50.800;4.342;2023-07-20T05:30:05;31.27;;;14.15;;
34832;SDS011;55941;50.800;4.342;2023-07-20T05:32:32;33.22;;;12.80;;
34832;SDS011;55941;50.800;4.342;2023-07-20T05:34:58;21.02;;;12.25;;
34832;SDS011;55941;50.800;4.342;2023-07-20T05:37:25;38.03;;;12.40;;
34832;SDS011;55941;50.800;4.342;2023-07-20T05:39:50;32.58;;;13.40;;
34832;SDS011;55941;50.800;4.342;2023-07-20T05:42:16;32.13;;;13.02;;
34832;SDS011;55941;50.800;4.342;2023-07-20T05:44:42;29.42;;;12.75;;
34832;SDS011;55941;50.800;4.342;2023-07-20T05:47:07;32.22;;;12.80;;
34832;SDS011;55941;50.800;4.342;2023-07-20T05:49:34;26.67;;;11.27;;
34832;SDS011;55941;50.800;4.342;2023-07-20T05:52:00;26.50;;;11.77;;
34832;SDS011;55941;50.800;4.342;2023-07-20T05:54:26;31.85;;;12.35;;
34832;SDS011;55941;50.800;4.342;2023-07-20T05:56:52;31.95;;;12.90;;
34832;SDS011;55941;50.800;4.342;2023-07-20T05:59:18;30.13;;;12.07;;
34832;SDS011;55941;50.800;4.342;2023-07-20T06:01:44;28.00;;;13.10;;
34832;SDS011;55941;50.800;4.342;2023-07-20T06:04:10;34.65;;;13.90;;
34832;SDS011;55941;50.800;4.342;2023-07-20T06:06:36;25.15;;;12.85;;
34832;SDS011;55941;50.800;4.342;2023-07-20T06:09:01;31.48;;;13.43;;
34832;SDS011;55941;50.800;4.342;2023-07-20T06:11:34;28.17;;;14.00;;
34832;SDS011;55941;50.800;4.342;2023-07-20T06:14:00;26.52;;;13.73;;
34832;SDS011;55941;50.800;4.342;2023-07-20T06:16:26;25.38;;;12.95;;
34832;SDS011;55941;50.800;4.342;2023-07-20T06:18:52;29.17;;;12.45;;
34832;SDS011;55941;50.800;4.342;2023-07-20T06:21:17;26.05;;;11.90;;
34832;SDS011;55941;50.800;4.342;2023-07-20T06:23:43;27.75;;;11.88;;
34832;SDS011;55941;50.800;4.342;2023-07-20T06:26:08;24.17;;;12.13;;
34832;SDS011;55941;50.800;4.342;2023-07-20T06:28:34;28.42;;;12.18;;
34832;SDS011;55941;50.800;4.342;2023-07-20T06:31:01;23.25;;;12.60;;
34832;SDS011;55941;50.800;4.342;2023-07-20T06:33:27;19.85;;;11.95;;
34832;SDS011;55941;50.800;4.342;2023-07-20T06:35:53;25.70;;;13.52;;
34832;SDS011;55941;50.800;4.342;2023-07-20T06:38:19;29.42;;;13.18;;
34832;SDS011;55941;50.800;4.342;2023-07-20T06:40:48;31.67;;;13.05;;
34832;SDS011;55941;50.800;4.342;2023-07-20T06:43:14;22.05;;;12.88;;
34832;SDS011;55941;50.800;4.342;2023-07-20T06:45:41;27.90;;;12.68;;
34832;SDS011;55941;50.800;4.342;2023-07-20T06:48:07;23.08;;;13.55;;
34832;SDS011;55941;50.800;4.342;2023-07-20T06:50:33;30.35;;;12.75;;
34832;SDS011;55941;50.800;4.342;2023-07-20T06:52:59;28.60;;;13.05;;
34832;SDS011;55941;50.800;4.342;2023-07-20T06:55:25;25.42;;;12.90;;
34832;SDS011;55941;50.800;4.342;2023-07-20T06:57:51;28.85;;;13.30;;
34832;SDS011;55941;50.800;4.342;2023-07-20T07:00:17;25.92;;;13.52;;
34832;SDS011;55941;50.800;4.342;2023-07-20T07:02:43;25.73;;;11.65;;
34832;SDS011;55941;50.800;4.342;2023-07-20T07:05:10;20.40;;;11.45;;
34832;SDS011;55941;50.800;4.342;2023-07-20T07:07:35;29.70;;;11.02;;
34832;SDS011;55941;50.800;4.342;2023-07-20T07:10:03;23.85;;;11.40;;
34832;SDS011;55941;50.800;4.342;2023-07-20T07:12:30;25.98;;;11.30;;
34832;SDS011;55941;50.800;4.342;2023-07-20T07:14:55;18.45;;;10.25;;
34832;SDS011;55941;50.800;4.342;2023-07-20T07:17:21;23.35;;;10.93;;
34832;SDS011;55941;50.800;4.342;2023-07-20T07:19:47;16.80;;;9.20;;
34832;SDS011;55941;50.800;4.342;2023-07-20T07:22:13;21.80;;;10.23;;
34832;SDS011;55941;50.800;4.342;2023-07-20T07:24:39;18.42;;;9.88;;
34832;SDS011;55941;50.800;4.342;2023-07-20T07:27:08;17.08;;;8.15;;
34832;SDS011;55941;50.800;4.342;2023-07-20T07:29:34;13.30;;;7.43;;
34832;SDS011;55941;50.800;4.342;2023-07-20T07:32:00;16.73;;;7.40;;
34832;SDS011;55941;50.800;4.342;2023-07-20T07:34:26;10.45;;;6.10;;
34832;SDS011;55941;50.800;4.342;2023-07-20T07:36:52;12.88;;;5.68;;
34832;SDS011;55941;50.800;4.342;2023-07-20T07:39:18;15.30;;;6.32;;
34832;SDS011;55941;50.800;4.342;2023-07-20T07:41:46;10.10;;;5.35;;
34832;SDS011;55941;50.800;4.342;2023-07-20T07:44:11;12.25;;;4.70;;
34832;SDS011;55941;50.800;4.342;2023-07-20T07:46:37;11.65;;;4.63;;
34832;SDS011;55941;50.800;4.342;2023-07-20T07:49:03;13.68;;;4.57;;
34832;SDS011;55941;50.800;4.342;2023-07-20T07:51:29;9.15;;;3.95;;
34832;SDS011;55941;50.800;4.342;2023-07-20T07:53:54;7.38;;;4.20;;
34832;SDS011;55941;50.800;4.342;2023-07-20T07:56:22;11.18;;;4.00;;
34832;SDS011;55941;50.800;4.342;2023-07-20T07:58:50;9.95;;;3.90;;
34832;SDS011;55941;50.800;4.342;2023-07-20T08:01:19;7.85;;;3.75;;
34832;SDS011;55941;50.800;4.342;2023-07-20T08:03:45;12.73;;;3.67;;
34832;SDS011;55941;50.800;4.342;2023-07-20T08:06:13;7.63;;;3.13;;
34832;SDS011;55941;50.800;4.342;2023-07-20T08:08:39;7.80;;;3.50;;
34832;SDS011;55941;50.800;4.342;2023-07-20T08:11:05;8.57;;;3.60;;
34832;SDS011;55941;50.800;4.342;2023-07-20T08:13:31;9.57;;;3.88;;
34832;SDS011;55941;50.800;4.342;2023-07-20T08:15:57;7.47;;;3.40;;
34832;SDS011;55941;50.800;4.342;2023-07-20T08:18:24;9.23;;;3.47;;
34832;SDS011;55941;50.800;4.342;2023-07-20T08:20:50;7.72;;;3.22;;
34832;SDS011;55941;50.800;4.342;2023-07-20T08:23:17;7.10;;;3.25;;
34832;SDS011;55941;50.800;4.342;2023-07-20T08:25:42;10.57;;;3.42;;
34832;SDS011;55941;50.800;4.342;2023-07-20T08:28:13;8.95;;;2.50;;
34832;SDS011;55941;50.800;4.342;2023-07-20T08:30:45;4.90;;;2.63;;
34832;SDS011;55941;50.800;4.342;2023-07-20T08:33:15;6.97;;;2.38;;
34832;SDS011;55941;50.800;4.342;2023-07-20T08:35:44;5.35;;;1.98;;
34832;SDS011;55941;50.800;4.342;2023-07-20T08:38:12;3.15;;;1.80;;
34832;SDS011;55941;50.800;4.342;2023-07-20T08:40:39;4.55;;;1.52;;
34832;SDS011;55941;50.800;4.342;2023-07-20T08:43:07;5.43;;;1.40;;
34832;SDS011;55941;50.800;4.342;2023-07-20T08:45:36;5.95;;;1.13;;
34832;SDS011;55941;50.800;4.342;2023-07-20T08:48:05;3.90;;;1.30;;
34832;SDS011;55941;50.800;4.342;2023-07-20T08:50:33;3.10;;;1.23;;
34832;SDS011;55941;50.800;4.342;2023-07-20T08:52:59;2.70;;;1.05;;
34832;SDS011;55941;50.800;4.342;2023-07-20T08:55:26;2.75;;;0.98;;
34832;SDS011;55941;50.800;4.342;2023-07-20T08:57:57;6.32;;;1.13;;
34832;SDS011;55941;50.800;4.342;2023-07-20T09:00:26;5.13;;;1.55;;
34832;SDS011;55941;50.800;4.342;2023-07-20T09:02:54;8.23;;;1.20;;
34832;SDS011;55941;50.800;4.342;2023-07-20T09:05:23;3.33;;;1.23;;
34832;SDS011;55941;50.800;4.342;2023-07-20T09:07:53;3.22;;;1.25;;
34832;SDS011;55941;50.800;4.342;2023-07-20T09:10:22;3.50;;;1.50;;
34832;SDS011;55941;50.800;4.342;2023-07-20T09:12:48;3.15;;;1.48;;
34832;SDS011;55941;50.800;4.342;2023-07-20T09:15:15;3.35;;;1.25;;
34832;SDS011;55941;50.800;4.342;2023-07-20T09:17:47;6.43;;;1.50;;
34832;SDS011;55941;50.800;4.342;2023-07-20T09:20:15;5.82;;;1.10;;
34832;SDS011;55941;50.800;4.342;2023-07-20T09:22:42;2.85;;;1.02;;
34832;SDS011;55941;50.800;4.342;2023-07-20T09:25:12;2.58;;;0.98;;
34832;SDS011;55941;50.800;4.342;2023-07-20T09:27:47;8.15;;;1.00;;
34832;SDS011;55941;50.800;4.342;2023-07-20T09:30:15;2.72;;;0.77;;
34832;SDS011;55941;50.800;4.342;2023-07-20T09:32:44;5.40;;;1.02;;
34832;SDS011;55941;50.800;4.342;2023-07-20T09:35:15;2.20;;;1.00;;
34832;SDS011;55941;50.800;4.342;2023-07-20T09:37:58;3.00;;;1.08;;
34832;SDS011;55941;50.800;4.342;2023-07-20T09:40:28;2.25;;;1.08;;
34832;SDS011;55941;50.800;4.342;2023-07-20T09:42:54;2.28;;;1.30;;
34832;SDS011;55941;50.800;4.342;2023-07-20T09:45:35;3.73;;;1.20;;
34832;SDS011;55941;50.800;4.342;2023-07-20T09:48:07;2.97;;;1.40;;
34832;SDS011;55941;50.800;4.342;2023-07-20T09:50:56;6.95;;;1.33;;
34832;SDS011;55941;50.800;4.342;2023-07-20T09:53:21;6.60;;;1.20;;
34832;SDS011;55941;50.800;4.342;2023-07-20T09:55:50;4.10;;;1.10;;
34832;SDS011;55941;50.800;4.342;2023-07-20T09:58:21;2.08;;;1.10;;
34832;SDS011;55941;50.800;4.342;2023-07-20T10:00:48;3.72;;;1.10;;
34832;SDS011;55941;50.800;4.342;2023-07-20T10:03:25;2.83;;;1.20;;
34832;SDS011;55941;50.800;4.342;2023-07-20T10:05:56;2.63;;;1.17;;
34832;SDS011;55941;50.800;4.342;2023-07-20T10:08:25;3.60;;;1.00;;
34832;SDS011;55941;50.800;4.342;2023-07-20T10:10:53;4.68;;;1.25;;
34832;SDS011;55941;50.800;4.342;2023-07-20T10:13:21;1.60;;;0.88;;
34832;SDS011;55941;50.800;4.342;2023-07-20T10:16:02;6.30;;;1.48;;
34832;SDS011;55941;50.800;4.342;2023-07-20T10:21:03;4.00;;;1.10;;
34832;SDS011;55941;50.800;4.342;2023-07-20T10:23:33;4.07;;;1.05;;
34832;SDS011;55941;50.800;4.342;2023-07-20T10:25:59;2.55;;;0.88;;
34832;SDS011;55941;50.800;4.342;2023-07-20T10:28:27;2.92;;;0.98;;
34832;SDS011;55941;50.800;4.342;2023-07-20T10:30:53;3.08;;;1.20;;
34832;SDS011;55941;50.800;4.342;2023-07-20T10:33:19;2.13;;;0.85;;
34832;SDS011;55941;50.800;4.342;2023-07-20T10:35:54;2.80;;;1.10;;
34832;SDS011;55941;50.800;4.342;2023-07-20T10:38:44;7.65;;;1.33;;
34832;SDS011;55941;50.800;4.342;2023-07-20T10:41:27;7.53;;;1.40;;
34832;SDS011;55941;50.800;4.342;2023-07-20T10:43:58;4.50;;;1.25;;
34832;SDS011;55941;50.800;4.342;2023-07-20T10:49:07;6.80;;;1.42;;
34832;SDS011;55941;50.800;4.342;2023-07-20T10:51:40;4.00;;;1.27;;
34832;SDS011;55941;50.800;4.342;2023-07-20T10:54:53;5.15;;;1.58;;
34832;SDS011;55941;50.800;4.342;2023-07-20T10:56:55;3.20;;;1.67;;
34832;SDS011;55941;50.800;4.342;2023-07-20T11:01:54;4.72;;;1.63;;
34832;SDS011;55941;50.800;4.342;2023-07-20T11:04:37;2.40;;;1.70;;
34832;SDS011;55941;50.800;4.342;2023-07-20T11:07:04;5.82;;;1.50;;
34832;SDS011;55941;50.800;4.342;2023-07-20T11:09:33;7.18;;;1.98;;
34832;SDS011;55941;50.800;4.342;2023-07-20T11:12:12;10.20;;;1.48;;
34832;SDS011;55941;50.800;4.342;2023-07-20T11:14:43;2.80;;;1.50;;
34832;SDS011;55941;50.800;4.342;2023-07-20T11:20:03;2.28;;;1.33;;
34832;SDS011;55941;50.800;4.342;2023-07-20T11:22:33;3.03;;;1.60;;
34832;SDS011;55941;50.800;4.342;2023-07-20T11:24:59;2.38;;;1.70;;
34832;SDS011;55941;50.800;4.342;2023-07-20T11:27:25;6.88;;;1.70;;
34832;SDS011;55941;50.800;4.342;2023-07-20T11:29:51;5.85;;;1.80;;
34832;SDS011;55941;50.800;4.342;2023-07-20T11:32:20;7.38;;;1.80;;
34832;SDS011;55941;50.800;4.342;2023-07-20T11:34:47;6.55;;;1.90;;
34832;SDS011;55941;50.800;4.342;2023-07-20T11:37:13;2.55;;;1.30;;
34832;SDS011;55941;50.800;4.342;2023-07-20T11:39:39;4.47;;;1.83;;
34832;SDS011;55941;50.800;4.342;2023-07-20T11:42:05;4.57;;;1.80;;
34832;SDS011;55941;50.800;4.342;2023-07-20T11:44:31;5.32;;;2.30;;
34832;SDS011;55941;50.800;4.342;2023-07-20T11:49:40;7.07;;;1.90;;
34832;SDS011;55941;50.800;4.342;2023-07-20T11:52:07;3.70;;;2.03;;
34832;SDS011;55941;50.800;4.342;2023-07-20T11:54:35;3.78;;;1.42;;
34832;SDS011;55941;50.800;4.342;2023-07-20T11:57:02;3.95;;;2.00;;
34832;SDS011;55941;50.800;4.342;2023-07-20T11:59:30;3.08;;;1.67;;
34832;SDS011;55941;50.800;4.342;2023-07-20T12:01:56;4.28;;;1.55;;
34832;SDS011;55941;50.800;4.342;2023-07-20T12:04:23;7.35;;;1.58;;
34832;SDS011;55941;50.800;4.342;2023-07-20T12:06:49;4.22;;;1.60;;
34832;SDS011;55941;50.800;4.342;2023-07-20T12:09:14;4.80;;;1.70;;
34832;SDS011;55941;50.800;4.342;2023-07-20T12:11:42;5.68;;;1.52;;
34832;SDS011;55941;50.800;4.342;2023-07-20T12:14:10;2.25;;;1.40;;
34832;SDS011;55941;50.800;4.342;2023-07-20T12:16:36;6.78;;;1.70;;
34832;SDS011;55941;50.800;4.342;2023-07-20T12:19:06;7.47;;;1.60;;
34832;SDS011;55941;50.800;4.342;2023-07-20T12:21:34;3.63;;;1.33;;
34832;SDS011;55941;50.800;4.342;2023-07-20T12:24:05;3.95;;;1.55;;
34832;SDS011;55941;50.800;4.342;2023-07-20T12:26:31;5.82;;;1.60;;
34832;SDS011;55941;50.800;4.342;2023-07-20T12:28:59;5.38;;;1.50;;
34832;SDS011;55941;50.800;4.342;2023-07-20T12:31:25;9.15;;;2.47;;
34832;SDS011;55941;50.800;4.342;2023-07-20T12:33:52;7.60;;;1.20;;
34832;SDS011;55941;50.800;4.342;2023-07-20T12:36:20;7.38;;;1.30;;
34832;SDS011;55941;50.800;4.342;2023-07-20T12:38:46;5.28;;;1.50;;
34832;SDS011;55941;50.800;4.342;2023-07-20T12:41:12;4.85;;;1.58;;
34832;SDS011;55941;50.800;4.342;2023-07-20T12:43:39;7.72;;;1.70;;
34832;SDS011;55941;50.800;4.342;2023-07-20T12:46:09;5.25;;;1.60;;
34832;SDS011;55941;50.800;4.342;2023-07-20T12:48:37;5.72;;;1.65;;
34832;SDS011;55941;50.800;4.342;2023-07-20T12:51:05;5.78;;;1.20;;
34832;SDS011;55941;50.800;4.342;2023-07-20T12:53:31;9.93;;;1.33;;
34832;SDS011;55941;50.800;4.342;2023-07-20T12:55:57;2.00;;;1.02;;
34832;SDS011;55941;50.800;4.342;2023-07-20T12:58:23;5.68;;;1.50;;
34832;SDS011;55941;50.800;4.342;2023-07-20T13:00:49;4.47;;;1.83;;
34832;SDS011;55941;50.800;4.342;2023-07-20T13:03:15;4.40;;;1.63;;
34832;SDS011;55941;50.800;4.342;2023-07-20T13:05:43;10.95;;;1.60;;
34832;SDS011;55941;50.800;4.342;2023-07-20T13:08:09;4.45;;;1.50;;
34832;SDS011;55941;50.800;4.342;2023-07-20T13:10:35;6.53;;;1.67;;
34832;SDS011;55941;50.800;4.342;2023-07-20T13:13:01;11.18;;;1.80;;
34832;SDS011;55941;50.800;4.342;2023-07-20T13:15:31;6.18;;;1.48;;
34832;SDS011;55941;50.800;4.342;2023-07-20T13:18:05;5.45;;;1.77;;
34832;SDS011;55941;50.800;4.342;2023-07-20T13:20:31;3.03;;;1.50;;
34832;SDS011;55941;50.800;4.342;2023-07-20T13:22:56;5.95;;;1.40;;
34832;SDS011;55941;50.800;4.342;2023-07-20T13:25:22;5.95;;;1.85;;
34832;SDS011;55941;50.800;4.342;2023-07-20T13:27:47;8.55;;;1.88;;
34832;SDS011;55941;50.800;4.342;2023-07-20T13:30:13;7.25;;;1.80;;
34832;SDS011;55941;50.800;4.342;2023-07-20T13:32:42;3.33;;;1.67;;
34832;SDS011;55941;50.800;4.342;2023-07-20T13:35:08;3.80;;;1.77;;
34832;SDS011;55941;50.800;4.342;2023-07-20T13:37:34;4.40;;;1.80;;
34832;SDS011;55941;50.800;4.342;2023-07-20T13:40:01;6.95;;;1.60;;
34832;SDS011;55941;50.800;4.342;2023-07-20T13:42:26;5.80;;;1.58;;
34832;SDS011;55941;50.800;4.342;2023-07-20T13:44:52;3.67;;;1.38;;
34832;SDS011;55941;50.800;4.342;2023-07-20T13:47:18;2.97;;;1.75;;
34832;SDS011;55941;50.800;4.342;2023-07-20T13:49:43;2.22;;;1.40;;
34832;SDS011;55941;50.800;4.342;2023-07-20T13:52:09;4.28;;;1.52;;
34832;SDS011;55941;50.800;4.342;2023-07-20T13:54:35;2.13;;;1.08;;
34832;SDS011;55941;50.800;4.342;2023-07-20T13:57:00;2.88;;;1.15;;
34832;SDS011;55941;50.800;4.342;2023-07-20T13:59:27;7.20;;;1.20;;
34832;SDS011;55941;50.800;4.342;2023-07-20T14:01:53;2.17;;;1.15;;
34832;SDS011;55941;50.800;4.342;2023-07-20T14:04:18;3.58;;;1.10;;
34832;SDS011;55941;50.800;4.342;2023-07-20T14:06:44;4.60;;;1.25;;
34832;SDS011;55941;50.800;4.342;2023-07-20T14:09:10;4.10;;;1.15;;
34832;SDS011;55941;50.800;4.342;2023-07-20T14:11:35;8.85;;;1.38;;
34832;SDS011;55941;50.800;4.342;2023-07-20T14:14:01;7.03;;;1.58;;
34832;SDS011;55941;50.800;4.342;2023-07-20T14:16:27;2.97;;;1.13;;
34832;SDS011;55941;50.800;4.342;2023-07-20T14:18:52;2.67;;;1.20;;
34832;SDS011;55941;50.800;4.342;2023-07-20T14:21:19;5.80;;;1.40;;
34832;SDS011;55941;50.800;4.342;2023-07-20T14:23:46;8.90;;;1.58;;
34832;SDS011;55941;50.800;4.342;2023-07-20T14:26:13;8.50;;;1.67;;
34832;SDS011;55941;50.800;4.342;2023-07-20T14:28:39;2.85;;;1.20;;
34832;SDS011;55941;50.800;4.342;2023-07-20T14:31:04;3.35;;;1.42;;
34832;SDS011;55941;50.800;4.342;2023-07-20T14:33:30;4.28;;;1.17;;
34832;SDS011;55941;50.800;4.342;2023-07-20T14:35:56;7.20;;;1.40;;
34832;SDS011;55941;50.800;4.342;2023-07-20T14:38:22;4.15;;;1.27;;
34832;SDS011;55941;50.800;4.342;2023-07-20T14:40:48;5.00;;;1.30;;
34832;SDS011;55941;50.800;4.342;2023-07-20T14:43:15;10.27;;;1.40;;
34832;SDS011;55941;50.800;4.342;2023-07-20T14:45:41;3.15;;;1.10;;
34832;SDS011;55941;50.800;4.342;2023-07-20T14:48:06;3.10;;;1.27;;
34832;SDS011;55941;50.800;4.342;2023-07-20T14:50:32;3.22;;;1.08;;
34832;SDS011;55941;50.800;4.342;2023-07-20T14:52:58;3.78;;;1.20;;
34832;SDS011;55941;50.800;4.342;2023-07-20T14:55:24;6.03;;;1.20;;
34832;SDS011;55941;50.800;4.342;2023-07-20T14:57:51;4.00;;;1.60;;
34832;SDS011;55941;50.800;4.342;2023-07-20T15:00:17;5.20;;;1.33;;